Time;durP1;ratioP1;P1;durP2;ratioP2;P2;SDS_P1;SDS_P2;PMS_P1;PMS_P2;Temp;Humidity;BMP_temperature;BMP_pressure;BME280_temperature;BME280_humidity;BME280_pressure;Samples;Min_cycle;Max_cycle;Signal;HPM_P1;HPM_P2
2022/04/15 00:01:05;;;;;;;0.40;0.37;;;;;;;11.68;90.62;95916.38;5097611;28;20455;-52
2022/04/15 00:03:34;;;;;;;0.50;0.30;;;;;;;11.12;97.35;95926.75;5098419;28;20424;-52
2022/04/15 00:06:08;;;;;;;0.30;0.20;;;;;;;11.06;100.00;95922.47;5097897;28;20468;-53
2022/04/15 00:08:37;;;;;;;1.67;0.50;;;;;;;10.95;100.00;95925.31;5098456;28;20473;-52
2022/04/15 00:11:06;;;;;;;1.90;0.40;;;;;;;11.00;100.00;95920.84;5098149;28;20910;-52
2022/04/15 00:13:35;;;;;;;0.30;0.30;;;;;;;11.08;100.00;95922.22;5098463;28;20448;-52
2022/04/15 00:16:05;;;;;;;0.40;0.30;;;;;;;11.07;100.00;95921.41;5098530;28;20415;-52
2022/04/15 00:18:34;;;;;;;0.40;0.30;;;;;;;11.43;99.71;95923.16;5098338;28;20912;-52
2022/04/15 00:21:05;;;;;;;0.30;0.20;;;;;;;11.42;97.49;95926.88;5097241;28;20451;-52
2022/04/15 00:23:34;;;;;;;0.47;0.40;;;;;;;11.36;99.37;95919.94;5097291;28;20424;-52
2022/04/15 00:26:03;;;;;;;0.30;0.20;;;;;;;11.28;99.47;95917.78;5097843;28;20464;-52
2022/04/15 00:28:32;;;;;;;0.30;0.30;;;;;;;11.20;100.00;95918.31;5097690;28;20428;-52
2022/04/15 00:31:01;;;;;;;0.50;0.50;;;;;;;11.16;99.73;95917.19;5098113;28;20448;-52
2022/04/15 00:33:29;;;;;;;0.30;0.20;;;;;;;11.20;97.48;95920.16;5098220;28;20428;-52
2022/04/15 00:35:58;;;;;;;0.40;0.30;;;;;;;11.26;97.74;95919.91;5098165;28;20462;-52
2022/04/15 00:38:28;;;;;;;1.50;1.50;;;;;;;11.20;99.10;95923.59;5098341;28;20824;-52
2022/04/15 00:40:56;;;;;;;0.50;0.50;;;;;;;11.41;95.29;95917.31;5098294;28;20416;-52
2022/04/15 00:43:24;;;;;;;0.43;0.43;;;;;;;11.44;96.88;95916.00;5097791;28;21169;-52
2022/04/15 00:45:53;;;;;;;0.30;0.30;;;;;;;11.33;98.15;95915.16;5097939;28;20463;-53
2022/04/15 00:48:24;;;;;;;0.40;0.30;;;;;;;11.23;99.75;95917.00;5097146;28;20424;-53
2022/04/15 00:50:52;;;;;;;0.30;0.20;;;;;;;11.31;98.11;95919.13;5097883;28;20420;-53
2022/04/15 00:53:23;;;;;;;0.50;0.43;;;;;;;11.25;98.54;95914.88;5094844;28;20463;-53
2022/04/15 00:55:57;;;;;;;5.47;0.30;;;;;;;11.20;97.34;95918.31;5094738;28;20453;-53
2022/04/15 00:58:27;;;;;;;0.50;0.43;;;;;;;11.17;97.81;95913.50;5093728;28;20423;-53
2022/04/15 01:00:57;;;;;;;0.30;0.20;;;;;;;11.04;97.62;95911.31;5094567;28;20424;-53
2022/04/15 01:03:26;;;;;;;0.30;0.20;;;;;;;11.13;97.46;95917.72;5094443;28;20515;-53
2022/04/15 01:05:58;;;;;;;0.30;0.20;;;;;;;11.01;97.61;95911.00;5092878;28;20496;-53
2022/04/15 01:08:29;;;;;;;0.47;0.37;;;;;;;10.88;99.51;95900.88;5094360;28;20424;-53
2022/04/15 01:11:01;;;;;;;0.40;0.40;;;;;;;10.71;99.08;95885.94;5094296;28;20526;-53
2022/04/15 01:13:34;;;;;;;0.40;0.30;;;;;;;10.73;100.00;95893.63;5094454;28;20917;-53
2022/04/15 01:16:04;;;;;;;0.30;0.20;;;;;;;10.89;97.66;95907.78;5094702;28;20855;-53
2022/04/15 01:18:32;;;;;;;0.30;0.20;;;;;;;10.71;100.00;95907.13;5094252;28;20424;-53
2022/04/15 01:21:00;;;;;;;0.30;0.20;;;;;;;10.73;99.37;95906.88;5093450;28;20935;-53
2022/04/15 01:23:30;;;;;;;0.30;0.20;;;;;;;10.81;97.54;95904.56;5094391;28;20430;-53
2022/04/15 01:25:59;;;;;;;0.60;0.60;;;;;;;10.90;97.62;95907.53;5094138;28;20468;-53
2022/04/15 01:28:27;;;;;;;0.30;0.20;;;;;;;10.90;96.93;95909.38;5094205;28;20463;-53
2022/04/15 01:30:55;;;;;;;0.30;0.30;;;;;;;10.71;100.00;95909.78;5094251;28;20459;-53
2022/04/15 01:33:24;;;;;;;0.30;0.20;;;;;;;10.64;100.00;95911.06;5094049;28;20758;-53
2022/04/15 01:35:55;;;;;;;9.30;0.70;;;;;;;10.75;100.00;95912.75;5093905;28;20975;-53
2022/04/15 01:38:24;;;;;;;0.30;0.20;;;;;;;10.80;98.60;95910.91;5093952;28;20527;-53
2022/04/15 01:40:53;;;;;;;0.30;0.20;;;;;;;10.67;98.94;95915.88;5093859;28;20456;-53
2022/04/15 01:43:22;;;;;;;0.40;0.20;;;;;;;10.59;98.90;95897.78;5093854;28;20905;-53
2022/04/15 01:45:50;;;;;;;0.33;0.27;;;;;;;10.63;100.00;95907.59;5094117;28;20467;-53
2022/04/15 01:48:19;;;;;;;0.30;0.20;;;;;;;10.63;100.00;95912.09;5093757;28;20906;-53
2022/04/15 01:50:47;;;;;;;0.50;0.40;;;;;;;10.61;100.00;95900.97;5093650;28;20511;-53
2022/04/15 01:53:16;;;;;;;0.30;0.30;;;;;;;10.47;100.00;95892.66;5093588;28;20469;-53
2022/04/15 01:55:44;;;;;;;0.30;0.30;;;;;;;10.40;100.00;95904.53;5093671;28;20463;-53
2022/04/15 01:58:14;;;;;;;0.30;0.20;;;;;;;10.34;100.00;95910.84;5093755;28;20412;-53
2022/04/15 02:00:42;;;;;;;0.40;0.30;;;;;;;9.62;100.00;95908.53;5093767;28;20445;-53
2022/04/15 02:03:11;;;;;;;0.40;0.40;;;;;;;9.81;100.00;95911.63;5092020;28;20423;-53
2022/04/15 02:05:39;;;;;;;1.63;0.73;;;;;;;9.82;100.00;95908.72;5092682;28;20452;-53
2022/04/15 02:08:08;;;;;;;0.30;0.20;;;;;;;9.43;100.00;95851.69;5093096;28;20460;-53
2022/04/15 02:10:36;;;;;;;0.30;0.20;;;;;;;9.89;100.00;95897.97;5093075;28;20891;-53
2022/04/15 02:13:05;;;;;;;0.30;0.20;;;;;;;10.14;100.00;95896.34;5093392;28;20413;-53
2022/04/15 02:15:36;;;;;;;1.50;0.40;;;;;;;10.06;100.00;95894.16;5093534;28;20849;-53
2022/04/15 02:18:04;;;;;;;0.30;0.20;;;;;;;10.10;100.00;95894.44;5093112;28;20456;-53
2022/04/15 02:20:33;;;;;;;0.40;0.20;;;;;;;10.30;100.00;95888.53;5093513;28;20424;-53
2022/04/15 02:23:01;;;;;;;0.30;0.20;;;;;;;10.23;100.00;95886.09;5093461;28;20451;-53
2022/04/15 02:25:30;;;;;;;0.40;0.30;;;;;;;10.22;100.00;95889.00;5092886;28;20456;-53
2022/04/15 02:27:58;;;;;;;0.37;0.30;;;;;;;10.31;100.00;95887.50;5093184;28;20499;-53
2022/04/15 02:30:27;;;;;;;0.30;0.20;;;;;;;10.26;100.00;95890.91;5092980;28;20424;-52
2022/04/15 02:32:57;;;;;;;0.30;0.20;;;;;;;10.22;100.00;95889.00;5092930;28;20556;-52
2022/04/15 02:35:25;;;;;;;0.50;0.47;;;;;;;10.19;100.00;95888.44;5092821;28;20494;-52
2022/04/15 02:37:54;;;;;;;0.37;0.30;;;;;;;10.31;100.00;95880.34;5093100;28;20445;-52
2022/04/15 02:40:22;;;;;;;0.50;0.50;;;;;;;10.29;100.00;95885.09;5092715;28;20499;-52
2022/04/15 02:42:51;;;;;;;0.30;0.30;;;;;;;10.13;100.00;95884.16;5091153;28;21136;-53
2022/04/15 02:45:21;;;;;;;0.33;0.30;;;;;;;10.26;100.00;95882.16;5092776;28;20966;-52
2022/04/15 02:47:50;;;;;;;0.30;0.20;;;;;;;10.34;100.00;95882.50;5092536;28;20464;-53
2022/04/15 02:50:20;;;;;;;0.37;0.30;;;;;;;10.28;100.00;95885.34;5092958;28;20504;-53
2022/04/15 02:52:49;;;;;;;0.30;0.20;;;;;;;9.55;100.00;95881.47;5092411;28;20428;-52
2022/04/15 02:55:17;;;;;;;0.70;0.40;;;;;;;9.10;100.00;95888.88;5091737;28;20444;-52
2022/04/15 02:57:46;;;;;;;3.03;0.67;;;;;;;8.47;100.00;95839.94;5092749;28;20416;-52
2022/04/15 03:00:15;;;;;;;0.50;0.30;;;;;;;8.75;100.00;95895.28;5092717;28;20860;-52
2022/04/15 03:02:43;;;;;;;6.13;0.70;;;;;;;9.19;100.00;95898.78;5092334;28;20435;-53
2022/04/15 03:05:11;;;;;;;0.30;0.20;;;;;;;9.06;100.00;95887.78;5092366;28;20932;-52
2022/04/15 03:07:41;;;;;;;1.00;0.30;;;;;;;8.23;100.00;95809.44;5092384;28;20591;-53
2022/04/15 03:10:10;;;;;;;0.40;0.30;;;;;;;9.21;100.00;95899.31;5092176;28;20471;-54
2022/04/15 03:12:39;;;;;;;0.60;0.50;;;;;;;9.35;100.00;95891.81;5092243;28;21013;-53
2022/04/15 03:15:10;;;;;;;0.30;0.20;;;;;;;9.34;100.00;95911.38;5090594;28;20432;-54
2022/04/15 03:17:38;;;;;;;0.87;0.87;;;;;;;8.62;100.00;95797.88;5091898;28;20416;-53
2022/04/15 03:20:08;;;;;;;0.30;0.30;;;;;;;8.94;100.00;95880.75;5091674;28;20440;-54
2022/04/15 03:22:37;;;;;;;0.43;0.43;;;;;;;9.07;100.00;95906.03;5092427;28;20504;-53
2022/04/15 03:25:09;;;;;;;0.30;0.20;;;;;;;8.89;100.00;95893.91;5092234;28;20477;-53
2022/04/15 03:27:38;;;;;;;0.47;0.40;;;;;;;8.97;100.00;95903.25;5092095;28;20464;-54
2022/04/15 03:30:07;;;;;;;0.30;0.30;;;;;;;9.24;100.00;95903.31;5092179;28;20416;-53
2022/04/15 03:32:44;;;;;;;0.40;0.30;;;;;;;9.29;100.00;95906.00;5090272;28;20452;-54
2022/04/15 03:35:13;;;;;;;0.33;0.30;;;;;;;9.27;100.00;95900.19;5089885;28;20455;-54
2022/04/15 03:37:41;;;;;;;0.50;0.50;;;;;;;9.23;100.00;95907.03;5089708;28;20413;-54
2022/04/15 03:40:12;;;;;;;0.40;0.40;;;;;;;9.16;100.00;95899.25;5091418;28;20511;-53
2022/04/15 03:42:45;;;;;;;0.50;0.40;;;;;;;9.24;100.00;95911.25;5091294;28;20431;-53
2022/04/15 03:45:14;;;;;;;0.40;0.30;;;;;;;9.26;100.00;95914.47;5091224;28;20474;-53
2022/04/15 03:47:43;;;;;;;4.33;0.77;;;;;;;9.43;100.00;95907.25;5092239;28;20551;-53
2022/04/15 03:50:11;;;;;;;0.30;0.20;;;;;;;9.33;100.00;95915.88;5091983;28;20420;-53
2022/04/15 03:52:42;;;;;;;0.40;0.30;;;;;;;8.21;100.00;95740.22;5092256;28;20470;-53
2022/04/15 03:55:15;;;;;;;1.13;1.13;;;;;;;9.39;100.00;95922.00;5091621;28;20456;-53
2022/04/15 03:57:44;;;;;;;0.30;0.20;;;;;;;9.37;100.00;95918.81;5090756;28;20804;-53
2022/04/15 04:00:15;;;;;;;0.30;0.20;;;;;;;9.41;100.00;95904.06;5091770;28;20843;-53
2022/04/15 04:02:44;;;;;;;0.50;0.30;;;;;;;9.54;100.00;95919.53;5091761;28;20442;-53
2022/04/15 04:05:14;;;;;;;0.50;0.40;;;;;;;9.49;100.00;95908.91;5091110;28;21092;-59
2022/04/15 04:07:42;;;;;;;0.40;0.40;;;;;;;10.04;100.00;95916.63;5091555;28;20810;-53
2022/04/15 04:10:12;;;;;;;0.83;0.83;;;;;;;10.36;100.00;95919.31;5090974;28;20554;-54
2022/04/15 04:12:43;;;;;;;0.30;0.30;;;;;;;10.00;100.00;95931.41;5091609;28;20432;-54
2022/04/15 04:15:13;;;;;;;0.30;0.20;;;;;;;10.21;100.00;95920.00;5091874;28;20499;-54
2022/04/15 04:17:42;;;;;;;0.40;0.30;;;;;;;10.50;100.00;95921.28;5091739;28;20451;-54
2022/04/15 04:20:12;;;;;;;0.30;0.20;;;;;;;10.61;100.00;95920.31;5091531;28;20515;-53
2022/04/15 04:22:41;;;;;;;0.30;0.20;;;;;;;9.74;95.33;95747.72;5091308;28;20416;-53
2022/04/15 04:25:11;;;;;;;0.40;0.30;;;;;;;10.08;100.00;95923.81;5091346;28;20995;-53
2022/04/15 04:27:40;;;;;;;0.40;0.30;;;;;;;10.04;100.00;95930.66;5094368;28;20840;-54
2022/04/15 04:30:13;;;;;;;0.40;0.30;;;;;;;9.68;100.00;95928.72;5093009;28;20511;-53
2022/04/15 04:32:42;;;;;;;0.50;0.50;;;;;;;10.00;100.00;95931.41;5094726;28;20896;-53
2022/04/15 04:35:10;;;;;;;0.50;0.50;;;;;;;10.48;100.00;95936.66;5094821;28;20424;-53
2022/04/15 04:37:38;;;;;;;0.40;0.40;;;;;;;10.60;96.63;95934.63;5094940;28;20452;-53
2022/04/15 04:40:08;;;;;;;0.40;0.30;;;;;;;10.20;100.00;95932.44;5095124;28;20511;-53
2022/04/15 04:42:37;;;;;;;0.50;0.40;;;;;;;10.04;100.00;95967.75;5094711;28;20456;-53
2022/04/15 04:45:06;;;;;;;0.30;0.20;;;;;;;9.98;100.00;95931.69;5093215;28;20912;-53
2022/04/15 04:47:36;;;;;;;0.60;0.60;;;;;;;9.81;100.00;95940.75;5094203;28;20448;-53
2022/04/15 04:50:04;;;;;;;5.60;0.80;;;;;;;9.90;100.00;95931.31;5094805;28;20509;-53
2022/04/15 04:52:33;;;;;;;0.40;0.40;;;;;;;10.30;100.00;95937.03;5094683;28;20444;-53
2022/04/15 04:55:02;;;;;;;0.50;0.50;;;;;;;9.72;100.00;95935.09;5095329;28;20847;-54
2022/04/15 04:57:30;;;;;;;0.60;0.50;;;;;;;10.27;100.00;95934.09;5094624;28;20421;-53
2022/04/15 04:59:59;;;;;;;1.27;1.27;;;;;;;10.59;100.00;95940.19;5094778;28;20478;-54
2022/04/15 05:02:27;;;;;;;0.40;0.30;;;;;;;10.14;100.00;95943.25;5094685;28;20455;-53
2022/04/15 05:04:57;;;;;;;1.87;1.67;;;;;;;10.46;100.00;95940.59;5094633;28;20421;-52
2022/04/15 05:07:26;;;;;;;0.40;0.30;;;;;;;10.19;100.00;95935.34;5094885;28;20840;-53
2022/04/15 05:09:54;;;;;;;0.50;0.50;;;;;;;10.39;100.00;95940.81;5094344;28;20627;-53
2022/04/15 05:12:23;;;;;;;1.13;0.70;;;;;;;10.05;100.00;95944.69;5094514;28;20527;-53
2022/04/15 05:14:51;;;;;;;4.73;1.70;;;;;;;9.96;100.00;95940.91;5094515;28;20423;-53
2022/04/15 05:17:20;;;;;;;0.50;0.50;;;;;;;10.62;100.00;95944.97;5094213;28;20831;-53
2022/04/15 05:19:48;;;;;;;0.50;0.50;;;;;;;10.69;100.00;95941.06;5094468;28;20503;-53
2022/04/15 05:22:18;;;;;;;0.33;0.30;;;;;;;10.51;100.00;95948.59;5094510;28;20432;-54
2022/04/15 05:24:46;;;;;;;1.70;0.60;;;;;;;11.04;100.00;95940.50;5094277;28;20471;-54
2022/04/15 05:27:15;;;;;;;0.67;0.67;;;;;;;11.49;95.44;95934.59;5094293;28;20427;-53
2022/04/15 05:29:43;;;;;;;2.27;2.07;;;;;;;11.82;91.47;95941.38;5094118;28;20460;-53
2022/04/15 05:32:11;;;;;;;1.97;1.77;;;;;;;11.85;89.73;95938.22;5093495;28;20428;-53
2022/04/15 05:34:42;;;;;;;0.40;0.30;;;;;;;11.80;90.72;95939.00;5094235;28;20420;-53
2022/04/15 05:37:11;;;;;;;0.63;0.63;;;;;;;11.33;95.94;95932.97;5094108;28;20432;-53
2022/04/15 05:39:41;;;;;;;0.73;0.73;;;;;;;11.83;90.51;95935.84;5093709;28;20525;-54
2022/04/15 05:42:09;;;;;;;0.80;0.60;;;;;;;11.46;88.70;95888.13;5094008;28;20487;-54
2022/04/15 05:44:38;;;;;;;2.40;2.30;;;;;;;10.69;96.60;95945.56;5094226;28;20504;-53
2022/04/15 05:47:07;;;;;;;1.13;1.13;;;;;;;10.81;97.73;95944.31;5093817;28;20428;-54
2022/04/15 05:49:36;;;;;;;0.40;0.40;;;;;;;10.78;98.92;95941.38;5093739;28;20563;-54
2022/04/15 05:52:05;;;;;;;1.67;1.57;;;;;;;10.87;97.85;95939.06;5093864;28;20499;-54
2022/04/15 05:54:34;;;;;;;0.77;0.77;;;;;;;11.14;96.11;95948.50;5094053;28;20459;-54
2022/04/15 05:57:04;;;;;;;0.80;0.80;;;;;;;11.26;95.07;95949.09;5093480;28;20446;-53
2022/04/15 05:59:33;;;;;;;0.80;0.80;;;;;;;10.43;98.25;95893.41;5093843;28;20417;-53
2022/04/15 06:02:01;;;;;;;1.17;0.90;;;;;;;11.14;97.21;95945.84;5093681;28;20503;-53
2022/04/15 06:04:30;;;;;;;4.80;1.73;;;;;;;11.45;93.43;95942.31;5093951;28;20447;-53
2022/04/15 06:06:59;;;;;;;0.50;0.40;;;;;;;11.72;91.90;95938.69;5093634;28;20428;-53
2022/04/15 06:09:27;;;;;;;0.70;0.50;;;;;;;11.70;91.44;95927.53;5093457;28;20491;-52
2022/04/15 06:11:56;;;;;;;4.23;3.93;;;;;;;12.49;88.82;95934.06;5093211;28;20420;-51
2022/04/15 06:14:27;;;;;;;0.57;0.57;;;;;;;13.44;78.81;95927.00;5093516;28;20455;-52
2022/04/15 06:16:56;;;;;;;0.60;0.53;;;;;;;13.57;76.47;95931.75;5093387;28;20431;-51
2022/04/15 06:19:24;;;;;;;0.50;0.50;;;;;;;13.42;72.92;95931.81;5093141;28;20504;-49
2022/04/15 06:21:58;;;;;;;3.93;1.07;;;;;;;13.25;75.64;95931.34;5093358;28;20516;-50
2022/04/15 06:24:26;;;;;;;0.67;0.67;;;;;;;13.19;76.15;95924.44;5092877;28;20460;-50
2022/04/15 06:26:55;;;;;;;0.93;0.93;;;;;;;13.76;72.22;95926.63;5093117;28;20503;-50
2022/04/15 06:29:23;;;;;;;0.40;0.40;;;;;;;14.09;70.54;95930.44;5092795;28;20475;-50
2022/04/15 06:31:53;;;;;;;0.90;0.90;;;;;;;13.90;68.41;95931.06;5092845;28;20500;-50
2022/04/15 06:34:21;;;;;;;0.80;0.80;;;;;;;14.87;63.09;95923.22;5092749;28;20511;-50
2022/04/15 06:36:50;;;;;;;0.77;0.77;;;;;;;14.09;65.05;95925.13;5092257;28;20973;-50
2022/04/15 06:39:18;;;;;;;0.77;0.73;;;;;;;15.07;60.98;95917.69;5092638;28;20924;-49
2022/04/15 06:41:46;;;;;;;1.10;0.80;;;;;;;14.35;63.25;95923.88;5092668;28;21000;-50
2022/04/15 06:44:15;;;;;;;0.63;0.63;;;;;;;14.89;62.07;95911.19;5092816;28;20874;-50
2022/04/15 06:46:43;;;;;;;0.50;0.50;;;;;;;14.44;61.43;95912.38;5092230;28;20424;-50
2022/04/15 06:49:13;;;;;;;0.50;0.40;;;;;;;15.23;58.40;95849.66;5092413;28;20468;-51
2022/04/15 06:51:41;;;;;;;0.90;0.90;;;;;;;15.89;53.97;95905.78;5092516;28;20432;-51
2022/04/15 06:54:09;;;;;;;2.70;0.60;;;;;;;16.21;54.37;95897.03;5092803;28;20491;-51
2022/04/15 06:56:38;;;;;;;0.53;0.40;;;;;;;15.97;53.54;95896.31;5092433;28;20854;-51
2022/04/15 06:59:06;;;;;;;0.83;0.83;;;;;;;16.05;53.69;95891.13;5092398;28;20511;-51
2022/04/15 07:01:35;;;;;;;0.43;0.43;;;;;;;16.67;51.66;95884.53;5092507;28;20750;-51
2022/04/15 07:04:03;;;;;;;0.80;0.80;;;;;;;16.90;50.44;95886.28;5092366;28;20993;-51
2022/04/15 07:06:33;;;;;;;0.70;0.70;;;;;;;17.62;48.62;95884.69;5092208;28;20424;-51
2022/04/15 07:09:01;;;;;;;0.40;0.40;;;;;;;17.73;46.55;95861.91;5092437;28;20514;-51
2022/04/15 07:11:30;;;;;;;0.50;0.50;;;;;;;17.46;47.10;95880.69;5091830;28;20508;-52
2022/04/15 07:13:58;;;;;;;0.40;0.40;;;;;;;17.65;47.48;95884.09;5092137;28;20523;-52
2022/04/15 07:16:26;;;;;;;4.77;0.60;;;;;;;18.72;45.32;95883.25;5092129;28;20507;-53
2022/04/15 07:18:56;;;;;;;0.57;0.50;;;;;;;19.52;43.20;95871.53;5092028;28;20417;-54
2022/04/15 07:21:25;;;;;;;0.40;0.40;;;;;;;18.72;43.34;95875.22;5092238;28;20420;-54
2022/04/15 07:23:54;;;;;;;0.47;0.37;;;;;;;19.71;42.79;95869.34;5091960;28;20471;-55
2022/04/15 07:26:23;;;;;;;0.60;0.50;;;;;;;18.34;43.12;95877.44;5091708;28;20428;-55
2022/04/15 07:28:51;;;;;;;2.53;1.00;;;;;;;18.94;43.43;95869.84;5092151;28;20873;-56
2022/04/15 07:31:19;;;;;;;0.70;0.70;;;;;;;19.20;42.75;95869.94;5091935;28;20936;-56
2022/04/15 07:33:48;;;;;;;0.50;0.40;;;;;;;19.04;41.83;95871.47;5091895;28;20700;-56
2022/04/15 07:39:06;;;;;;;0.60;0.40;;;;;;;19.34;40.33;95848.34;5091742;28;20440;-56
2022/04/15 07:41:36;;;;;;;0.50;0.50;;;;;;;19.69;40.63;95866.19;5091698;28;20471;-55
2022/04/15 07:44:05;;;;;;;0.50;0.50;;;;;;;20.11;39.79;95851.97;5091611;28;20428;-55
2022/04/15 07:46:34;;;;;;;0.70;0.50;;;;;;;20.18;38.93;95859.59;5091702;28;20468;-55
2022/04/15 07:49:02;;;;;;;0.53;0.50;;;;;;;20.21;39.81;95843.59;5091555;28;20807;-54
2022/04/15 07:51:31;;;;;;;0.90;0.53;;;;;;;20.40;38.78;95858.66;5091749;28;20958;-55
2022/04/15 07:54:00;;;;;;;0.60;0.40;;;;;;;20.97;37.50;95859.22;5091790;28;20459;-54
2022/04/15 07:56:29;;;;;;;0.60;0.50;;;;;;;21.05;37.48;95853.78;5090838;28;20512;-55
2022/04/15 07:58:58;;;;;;;0.77;0.77;;;;;;;20.62;38.91;95855.78;5091242;28;20515;-55
2022/04/15 08:01:30;;;;;;;0.77;0.77;;;;;;;21.64;37.20;95848.47;5092733;28;20462;-55
2022/04/15 08:03:59;;;;;;;0.40;0.30;;;;;;;22.29;37.04;95835.19;5095369;28;20459;-55
2022/04/15 08:06:29;;;;;;;0.60;0.50;;;;;;;22.20;36.13;95841.78;5095620;28;20916;-55
2022/04/15 08:09:00;;;;;;;3.57;0.47;;;;;;;22.82;34.91;95833.63;5095799;28;20450;-55
2022/04/15 08:11:29;;;;;;;0.47;0.37;;;;;;;23.54;33.44;95828.31;5095101;28;20570;-54
2022/04/15 08:13:58;;;;;;;0.67;0.67;;;;;;;22.93;34.24;95832.06;5095405;28;20473;-54
2022/04/15 08:16:27;;;;;;;0.70;0.67;;;;;;;22.24;33.65;95826.53;5095245;28;20936;-55
2022/04/15 08:18:56;;;;;;;0.57;0.50;;;;;;;21.73;34.34;95814.16;5095623;28;20800;-55
2022/04/15 08:21:25;;;;;;;0.40;0.30;;;;;;;22.55;35.45;95789.03;5095403;28;20448;-53
2022/04/15 08:23:53;;;;;;;0.63;0.63;;;;;;;23.03;32.09;95807.28;5095345;28;20420;-56
2022/04/15 08:26:21;;;;;;;0.63;0.63;;;;;;;23.27;33.15;95812.75;5095200;28;20519;-56
2022/04/15 08:28:51;;;;;;;1.23;0.50;;;;;;;23.86;31.52;95807.63;5095297;28;20473;-56
2022/04/15 08:31:20;;;;;;;0.47;0.40;;;;;;;23.69;30.49;95651.72;5094923;28;21027;-56
2022/04/15 08:33:48;;;;;;;0.70;0.63;;;;;;;23.83;30.68;95803.69;5095221;28;20839;-56
2022/04/15 08:36:16;;;;;;;1.17;1.07;;;;;;;23.87;30.83;95791.06;5095045;28;20507;-55
2022/04/15 08:38:45;;;;;;;0.67;0.50;;;;;;;23.57;30.40;95692.34;5094827;28;20457;-53
2022/04/15 08:41:15;;;;;;;0.60;0.60;;;;;;;23.93;30.64;95781.56;5094722;28;20420;-55
2022/04/15 08:43:43;;;;;;;0.70;0.70;;;;;;;24.90;30.40;95753.28;5094620;28;20452;-54
2022/04/15 08:46:14;;;;;;;0.60;0.40;;;;;;;24.45;31.27;95688.59;5094652;28;20452;-54
2022/04/15 08:48:43;;;;;;;2.93;1.23;;;;;;;24.21;32.15;95761.88;5094515;28;20463;-54
2022/04/15 08:51:12;;;;;;;2.20;0.57;;;;;;;24.74;31.50;95757.88;5094129;28;20540;-54
2022/04/15 08:53:42;;;;;;;0.40;0.40;;;;;;;26.27;31.54;95761.09;5094727;28;20543;-54
2022/04/15 08:56:10;;;;;;;0.67;0.57;;;;;;;26.42;30.18;95744.69;5094095;28;20425;-55
2022/04/15 08:58:39;;;;;;;0.40;0.40;;;;;;;26.05;31.24;95753.63;5094914;28;20515;-56
2022/04/15 09:01:07;;;;;;;1.63;0.80;;;;;;;24.74;30.76;95577.06;5094876;28;20496;-55
2022/04/15 09:03:39;;;;;;;0.70;0.53;;;;;;;26.15;30.31;95742.22;5094628;28;20431;-55
2022/04/15 09:06:14;;;;;;;0.50;0.30;;;;;;;27.02;28.33;95698.75;5094335;28;20482;-55
2022/04/15 09:09:01;;;;;;;0.73;0.63;;;;;;;26.70;28.33;95736.28;5094359;28;20466;-55
2022/04/15 09:11:32;;;;;;;0.50;0.50;;;;;;;26.13;28.55;95734.44;5093954;28;20510;-55
2022/04/15 09:14:03;;;;;;;0.77;0.77;;;;;;;25.90;30.86;95730.03;5093395;28;20943;-54
2022/04/15 09:16:32;;;;;;;0.40;0.30;;;;;;;26.39;31.42;95723.66;5093807;28;20908;-56
2022/04/15 09:19:03;;;;;;;0.63;0.63;;;;;;;27.44;28.56;95710.34;5094493;28;20427;-54
2022/04/15 09:21:31;;;;;;;0.37;0.30;;;;;;;26.15;28.41;95634.34;5094201;28;20439;-55
2022/04/15 09:24:00;;;;;;;0.70;0.60;;;;;;;25.56;28.97;95710.69;5094049;28;20932;-54
2022/04/15 09:26:28;;;;;;;0.47;0.40;;;;;;;26.61;28.63;95700.41;5094280;28;20512;-53
2022/04/15 09:28:58;;;;;;;0.50;0.40;;;;;;;26.98;29.87;95698.72;5094557;28;20838;-54
2022/04/15 09:31:26;;;;;;;0.40;0.40;;;;;;;26.95;28.94;95687.75;5093937;28;20488;-56
2022/04/15 09:33:56;;;;;;;0.60;0.60;;;;;;;27.21;28.88;95678.84;5093982;28;20811;-54
2022/04/15 09:36:31;;;;;;;0.60;0.60;;;;;;;26.89;28.30;95678.34;5093801;28;20511;-54
2022/04/15 09:39:01;;;;;;;0.60;0.60;;;;;;;26.91;29.19;95676.06;5093583;28;20478;-54
2022/04/15 09:41:33;;;;;;;0.40;0.37;;;;;;;25.81;30.83;95674.00;5093702;28;20519;-54
2022/04/15 09:44:02;;;;;;;0.40;0.30;;;;;;;26.20;30.87;95668.56;5093446;28;20965;-54
2022/04/15 09:46:31;;;;;;;0.60;0.60;;;;;;;27.71;28.00;95648.44;5093271;28;20456;-55
2022/04/15 09:49:06;;;;;;;0.50;0.37;;;;;;;28.42;27.80;95650.03;5093315;28;20456;-55
2022/04/15 09:51:44;;;;;;;0.50;0.40;;;;;;;28.87;28.68;95632.53;5093298;28;21037;-55
2022/04/15 09:54:23;;;;;;;0.50;0.47;;;;;;;29.32;26.60;95643.00;5093230;28;20435;-56
2022/04/15 09:56:53;;;;;;;0.40;0.30;;;;;;;29.95;27.11;95633.59;5093186;28;20426;-55
2022/04/15 09:59:23;;;;;;;1.07;0.47;;;;;;;29.06;25.80;95632.28;5093135;28;20932;-54
2022/04/15 10:01:56;;;;;;;0.60;0.40;;;;;;;28.72;27.84;95637.09;5093344;28;20459;-54
2022/04/15 10:04:25;;;;;;;0.70;0.70;;;;;;;28.12;28.12;95624.81;5092817;28;20416;-54
2022/04/15 10:06:55;;;;;;;0.60;0.60;;;;;;;28.22;27.18;95618.69;5093120;28;20486;-55
2022/04/15 10:09:24;;;;;;;0.40;0.40;;;;;;;28.45;26.25;95624.75;5093527;28;20420;-54
2022/04/15 10:11:52;;;;;;;0.40;0.40;;;;;;;29.01;26.02;95610.81;5092668;28;20563;-55
2022/04/15 10:14:21;;;;;;;1.00;0.90;;;;;;;28.33;27.14;95619.56;5092572;28;20456;-55
2022/04/15 10:16:50;;;;;;;0.40;0.40;;;;;;;28.25;27.09;95609.75;5092747;28;20956;-54
2022/04/15 10:19:21;;;;;;;0.30;0.30;;;;;;;28.76;27.32;95607.13;5092826;28;20503;-54
2022/04/15 10:21:52;;;;;;;1.63;1.13;;;;;;;29.63;26.59;95602.56;5091967;28;20431;-56
2022/04/15 10:24:26;;;;;;;0.70;0.60;;;;;;;29.18;27.31;95595.69;5092308;28;20478;-55
2022/04/15 10:26:59;;;;;;;0.93;0.60;;;;;;;28.85;26.87;95597.44;5092615;28;20489;-54
2022/04/15 10:29:27;;;;;;;0.40;0.30;;;;;;;29.08;27.17;95585.50;5092406;28;20627;-55
2022/04/15 10:31:56;;;;;;;1.07;0.67;;;;;;;29.23;27.04;95576.25;5092336;28;20542;-55
2022/04/15 10:34:24;;;;;;;0.70;0.50;;;;;;;28.93;27.20;95574.50;5092750;28;20523;-54
2022/04/15 10:36:54;;;;;;;0.93;0.67;;;;;;;28.87;27.18;95569.75;5092751;28;20431;-56
2022/04/15 10:39:29;;;;;;;0.40;0.30;;;;;;;29.32;27.35;95565.78;5093009;28;20431;-55
2022/04/15 10:42:05;;;;;;;0.47;0.40;;;;;;;30.22;25.34;95560.22;5092723;28;20416;-55
2022/04/15 10:44:39;;;;;;;1.20;0.53;;;;;;;30.78;25.48;95541.09;5092294;28;20416;-55
2022/04/15 10:47:13;;;;;;;0.93;0.67;;;;;;;28.95;25.29;95555.00;5091403;28;20784;-55
2022/04/15 10:49:55;;;;;;;0.50;0.50;;;;;;;29.01;25.67;95558.94;5091842;28;20511;-55
2022/04/15 10:52:25;;;;;;;0.50;0.40;;;;;;;28.81;26.24;95557.66;5092011;28;20460;-55
2022/04/15 10:54:59;;;;;;;0.40;0.30;;;;;;;30.53;24.31;95535.66;5092195;28;20927;-55
2022/04/15 10:57:35;;;;;;;0.57;0.57;;;;;;;29.80;23.93;95531.66;5092336;28;20858;-55
2022/04/15 11:02:58;;;;;;;0.37;0.30;;;;;;;29.19;26.17;95532.53;5091844;28;20507;-55
2022/04/15 11:05:52;;;;;;;11.20;1.17;;;;;;;30.50;24.42;95525.47;5092175;28;20520;-55
2022/04/15 11:08:22;;;;;;;3.73;1.03;;;;;;;30.10;23.44;95523.88;5091906;28;20494;-56
2022/04/15 11:11:03;;;;;;;2.87;2.77;;;;;;;29.43;24.11;95463.59;5091834;28;20537;-55
2022/04/15 11:13:54;;;;;;;0.40;0.30;;;;;;;30.16;23.16;95477.78;5092229;28;20426;-55
2022/04/15 11:16:22;;;;;;;0.80;0.40;;;;;;;29.90;22.49;95519.16;5092005;28;20747;-56
2022/04/15 11:18:53;;;;;;;0.50;0.47;;;;;;;31.46;22.13;95508.88;5091792;28;20432;-55
2022/04/15 11:21:30;;;;;;;0.50;0.30;;;;;;;31.23;16.81;95443.59;5091867;28;20867;-55
2022/04/15 11:24:00;;;;;;;0.40;0.40;;;;;;;32.39;18.82;95491.44;5091654;28;20981;-55
2022/04/15 11:26:30;;;;;;;0.40;0.30;;;;;;;31.78;18.18;95493.81;5091464;28;20446;-56
2022/04/15 11:29:00;;;;;;;0.47;0.33;;;;;;;31.41;15.17;95485.38;5091627;28;20457;-56
2022/04/15 11:31:30;;;;;;;0.40;0.40;;;;;;;31.80;15.21;95479.72;5091822;28;20536;-55
2022/04/15 11:34:05;;;;;;;0.70;0.50;;;;;;;31.07;15.71;95478.88;5091719;28;20481;-55
2022/04/15 11:36:34;;;;;;;0.50;0.40;;;;;;;32.11;15.90;95477.94;5090751;28;20511;-56
2022/04/15 11:39:05;;;;;;;1.03;0.30;;;;;;;31.62;15.56;95468.09;5090822;28;20481;-55
2022/04/15 11:41:35;;;;;;;0.50;0.30;;;;;;;31.65;16.57;95475.50;5091912;28;20416;-55
2022/04/15 11:44:05;;;;;;;0.40;0.37;;;;;;;32.12;17.49;95454.84;5091023;28;20423;-56
2022/04/15 11:46:41;;;;;;;0.40;0.30;;;;;;;31.96;16.92;95445.13;5091820;28;20447;-56
2022/04/15 11:49:18;;;;;;;0.40;0.33;;;;;;;31.68;15.73;95453.53;5091936;28;20503;-56